Terminal Aerodrome Forecast
Issued by NWS Charleston, WV

Current Version | Previous Version | Text Only | Print | Product List | Glossary Off
Versions: 1 2 3 4 5 6 7 8 9 10 11 12 13 14 15 16 17 18 19 20 21 22 23

344
FTUS41 KRLX 291538 AAB
TAFEKN
TAF AMD
KEKN 291538Z 2916/3012 28005KT P6SM BKN030
     FM291700 30006KT P6SM BKN035
     FM292300 VRB03KT P6SM SCT030
     FM300500 VRB03KT 2SM BR SCT001=

USA.gov is the U.S. government's official web portal to all federal, state and local government web resources and services.